Time;durP1;ratioP1;P1;durP2;ratioP2;P2;SDS_P1;SDS_P2;PMS_P1;PMS_P2;Temp;Humidity;BMP_temperature;BMP_pressure;BME280_temperature;BME280_humidity;BME280_pressure;Samples;Min_cycle;Max_cycle;Signal;HPM_P1;HPM_P2
2022/05/21 00:00:23;;;;;;;23.17;13.27;;;10.40;99.90;;;;;;5063881;28;20052;-86
2022/05/21 00:02:49;;;;;;;20.80;11.13;;;10.40;99.90;;;;;;5052781;28;20084;-87
2022/05/21 00:05:16;;;;;;;20.73;11.15;;;10.40;99.90;;;;;;5050195;28;20049;-87
2022/05/21 00:07:42;;;;;;;23.75;12.90;;;10.40;99.90;;;;;;5016176;28;20064;-86
2022/05/21 00:10:08;;;;;;;21.67;12.77;;;10.40;99.90;;;;;;5033979;28;20428;-84
2022/05/21 00:12:34;;;;;;;22.27;12.25;;;10.40;99.90;;;;;;5049590;28;20048;-85
2022/05/21 00:15:00;;;;;;;24.00;13.45;;;10.40;99.90;;;;;;5050548;28;20469;-86
2022/05/21 00:17:26;;;;;;;27.48;12.65;;;10.50;99.90;;;;;;5049476;28;20049;-86
2022/05/21 00:19:51;;;;;;;25.15;13.55;;;10.50;99.90;;;;;;5032064;28;20463;-86
2022/05/21 00:22:17;;;;;;;23.63;12.77;;;10.60;99.90;;;;;;5049059;28;20063;-85
2022/05/21 00:24:42;;;;;;;24.58;13.98;;;10.50;99.90;;;;;;5048823;28;20397;-86
2022/05/21 00:27:08;;;;;;;23.08;13.68;;;10.40;99.90;;;;;;5048964;28;20483;-85
2022/05/21 00:29:34;;;;;;;25.20;13.90;;;10.50;99.90;;;;;;5048806;28;20124;-85
2022/05/21 00:32:00;;;;;;;26.00;15.07;;;10.50;99.90;;;;;;5049061;28;20096;-86
2022/05/21 00:34:26;;;;;;;30.08;15.43;;;10.50;99.90;;;;;;5050199;28;20473;-86
2022/05/21 00:36:52;;;;;;;27.45;14.63;;;10.50;99.90;;;;;;5031732;28;20052;-86
2022/05/21 00:39:17;;;;;;;30.35;15.85;;;10.40;99.90;;;;;;5049778;28;20107;-85
2022/05/21 00:41:43;;;;;;;25.38;15.63;;;10.50;99.90;;;;;;5032355;28;20060;-85
2022/05/21 00:44:09;;;;;;;26.05;16.73;;;10.50;99.90;;;;;;5048905;28;20397;-85
2022/05/21 00:46:40;;;;;;;26.25;15.70;;;10.50;99.90;;;;;;5032017;28;20045;-86
2022/05/21 00:49:19;;;;;;;28.83;16.80;;;10.50;99.90;;;;;;5047923;28;20457;-86
2022/05/21 00:52:10;;;;;;;33.65;18.17;;;10.50;99.90;;;;;;5033092;28;20060;-82
2022/05/21 00:54:45;;;;;;;37.03;17.98;;;10.40;99.90;;;;;;5050651;28;20084;-86
2022/05/21 00:57:16;;;;;;;33.78;20.13;;;10.50;99.90;;;;;;5036056;28;20059;-87
2022/05/21 00:59:47;;;;;;;33.28;20.30;;;10.50;99.90;;;;;;5052494;28;20485;-85
2022/05/21 01:02:15;;;;;;;33.00;21.08;;;10.40;99.90;;;;;;5036459;28;20434;-85
2022/05/21 01:04:42;;;;;;;42.83;23.02;;;10.40;99.90;;;;;;5019235;28;20056;-86
2022/05/21 01:07:08;;;;;;;41.13;23.48;;;10.40;99.90;;;;;;5035702;28;20591;-86
2022/05/21 01:09:35;;;;;;;38.92;23.08;;;10.50;99.90;;;;;;5052384;28;20060;-85
2022/05/21 01:12:03;;;;;;;52.17;25.98;;;10.50;99.90;;;;;;5035277;28;20052;-86
2022/05/21 01:14:29;;;;;;;50.00;28.75;;;10.60;99.90;;;;;;5053023;28;20048;-86
2022/05/21 01:16:55;;;;;;;54.88;30.25;;;10.60;99.90;;;;;;5051678;28;20045;-86
2022/05/21 01:19:21;;;;;;;57.83;32.70;;;10.70;99.90;;;;;;5035515;28;20052;-86
2022/05/21 01:21:47;;;;;;;62.25;34.03;;;10.70;99.90;;;;;;5052183;28;20392;-87
2022/05/21 01:24:12;;;;;;;60.05;33.38;;;10.80;99.90;;;;;;5051347;28;20051;-87
2022/05/21 01:26:39;;;;;;;57.45;34.72;;;10.80;99.90;;;;;;5048793;28;20401;-86
2022/05/21 01:29:09;;;;;;;70.65;38.25;;;10.90;99.90;;;;;;5014791;28;20160;-86
2022/05/21 01:31:36;;;;;;;60.97;36.60;;;10.90;99.90;;;;;;5032703;28;20095;-86
2022/05/21 01:34:02;;;;;;;71.75;39.35;;;10.90;99.90;;;;;;5031357;28;20081;-86
2022/05/21 01:36:27;;;;;;;68.80;39.30;;;10.90;99.90;;;;;;5031532;28;20077;-86
2022/05/21 01:38:53;;;;;;;75.40;41.15;;;10.90;99.90;;;;;;5048007;28;20041;-86
2022/05/21 01:41:19;;;;;;;77.60;41.88;;;11.00;99.90;;;;;;5015511;28;20122;-84
2022/05/21 01:46:28;;;;;;;76.68;42.80;;;11.00;99.90;;;;;;5037641;28;20050;-85
2022/05/21 01:48:54;;;;;;;81.78;44.30;;;11.00;99.90;;;;;;5036516;28;20049;-82
2022/05/21 01:51:20;;;;;;;90.10;48.80;;;11.10;99.90;;;;;;5038453;28;20053;-85
2022/05/21 01:53:46;;;;;;;85.55;46.67;;;11.20;99.90;;;;;;5047708;28;20035;-81
2022/05/21 01:56:12;;;;;;;80.18;44.83;;;11.30;99.90;;;;;;5048110;28;20204;-86
2022/05/21 01:58:37;;;;;;;98.95;49.28;;;11.30;99.90;;;;;;5032627;28;20103;-86
2022/05/21 02:01:04;;;;;;;81.72;46.88;;;11.30;99.90;;;;;;5032034;28;20072;-86
2022/05/21 02:03:29;;;;;;;82.57;47.00;;;11.30;99.90;;;;;;5031747;28;20065;-86
2022/05/21 02:05:55;;;;;;;91.68;47.10;;;11.40;99.90;;;;;;5030316;28;20505;-85
2022/05/21 02:08:21;;;;;;;90.20;50.58;;;11.50;99.90;;;;;;5031059;28;20042;-85
2022/05/21 02:10:47;;;;;;;91.30;49.85;;;11.50;99.90;;;;;;5031039;28;20049;-85
2022/05/21 02:13:26;;;;;;;89.32;50.38;;;11.60;99.90;;;;;;5030650;28;20478;-85
2022/05/21 02:15:52;;;;;;;89.18;47.58;;;11.60;99.90;;;;;;5031274;28;20049;-84
2022/05/21 02:18:18;;;;;;;84.78;47.22;;;11.60;99.90;;;;;;5031587;28;20835;-84
2022/05/21 02:20:45;;;;;;;86.28;48.83;;;11.70;99.90;;;;;;5014094;28;20061;-85
2022/05/21 02:23:11;;;;;;;91.57;51.20;;;11.70;99.90;;;;;;5030536;28;20057;-85
2022/05/21 02:25:38;;;;;;;88.68;47.17;;;11.70;99.90;;;;;;5030414;28;20103;-85
2022/05/21 02:28:04;;;;;;;89.93;50.67;;;11.80;99.90;;;;;;5031593;28;20493;-85
2022/05/21 02:30:30;;;;;;;87.82;50.03;;;11.80;99.90;;;;;;4998600;28;20481;-85
2022/05/21 02:32:55;;;;;;;83.55;49.55;;;11.80;99.90;;;;;;5031012;28;20072;-85
2022/05/21 02:35:21;;;;;;;92.60;49.20;;;11.80;99.90;;;;;;5030915;28;20104;-87
2022/05/21 02:40:31;;;;;;;78.43;46.80;;;11.80;99.90;;;;;;5034014;28;20050;-85
2022/05/21 02:42:56;;;;;;;88.00;52.22;;;11.80;99.90;;;;;;5014818;28;20371;-83
2022/05/21 02:45:24;;;;;;;100.95;53.42;;;11.80;99.90;;;;;;5030869;28;20072;-85
2022/05/21 02:47:50;;;;;;;85.38;50.95;;;11.90;99.90;;;;;;5014489;28;20096;-85
2022/05/21 02:50:18;;;;;;;90.72;52.88;;;11.90;99.90;;;;;;5030775;28;20049;-85
2022/05/21 02:52:44;;;;;;;80.40;49.17;;;11.80;99.90;;;;;;5031014;28;20236;-85
2022/05/21 02:55:10;;;;;;;89.28;53.15;;;11.90;99.90;;;;;;5045807;28;20057;-85
2022/05/21 02:57:35;;;;;;;84.20;52.58;;;11.90;99.90;;;;;;5005522;28;20048;-85
2022/05/21 03:00:03;;;;;;;90.35;54.50;;;12.00;99.90;;;;;;5030075;28;20042;-84
2022/05/21 03:02:29;;;;;;;84.70;51.35;;;12.00;99.90;;;;;;5042593;28;20053;-84
2022/05/21 03:04:54;;;;;;;82.55;50.85;;;12.00;99.90;;;;;;5036343;28;20147;-84
2022/05/21 03:07:20;;;;;;;89.82;51.55;;;12.00;99.90;;;;;;5013571;28;20326;-84
2022/05/21 03:12:30;;;;;;;;;;;12.00;99.90;;;;;;5030878;28;20061;-83
2022/05/21 03:14:56;;;;;;;80.43;49.15;;;12.00;99.90;;;;;;5030314;28;19921;-85
2022/05/21 03:17:21;;;;;;;76.97;45.97;;;12.00;99.90;;;;;;5028713;28;20260;-84
2022/05/21 03:19:47;;;;;;;81.97;47.15;;;12.10;99.90;;;;;;5029680;28;20140;-85
2022/05/21 03:22:13;;;;;;;77.75;47.97;;;12.10;99.90;;;;;;5030774;28;20560;-85
2022/05/21 03:24:39;;;;;;;80.35;47.55;;;12.10;99.90;;;;;;5029924;28;20063;-86
2022/05/21 03:27:07;;;;;;;72.40;46.05;;;12.10;99.90;;;;;;5029466;28;20056;-84
2022/05/21 03:29:33;;;;;;;74.88;45.22;;;12.10;99.90;;;;;;5031018;28;20084;-85
2022/05/21 03:31:59;;;;;;;86.55;47.97;;;12.10;99.90;;;;;;5030889;28;20087;-85
2022/05/21 03:34:24;;;;;;;82.03;46.50;;;12.10;99.90;;;;;;5029560;28;20553;-85
2022/05/21 03:36:50;;;;;;;84.60;46.83;;;12.10;99.90;;;;;;5030040;28;20109;-84
2022/05/21 03:39:15;;;;;;;85.45;45.35;;;12.10;99.90;;;;;;5029890;28;20524;-86
2022/05/21 03:41:41;;;;;;;77.30;44.13;;;12.10;99.90;;;;;;5013518;28;20445;-86
2022/05/21 03:44:08;;;;;;;64.57;38.03;;;12.10;99.90;;;;;;5028881;28;20481;-86
2022/05/21 03:46:38;;;;;;;83.75;44.03;;;12.20;99.90;;;;;;5029726;28;20062;-86
2022/05/21 03:49:04;;;;;;;78.93;43.00;;;12.30;99.90;;;;;;5029404;28;20088;-86
2022/05/21 03:51:30;;;;;;;66.05;41.17;;;12.20;99.90;;;;;;5012871;28;20099;-85
2022/05/21 03:53:55;;;;;;;61.63;35.92;;;12.20;99.90;;;;;;5029624;28;20053;-84
2022/05/21 03:56:21;;;;;;;66.47;39.28;;;12.30;99.90;;;;;;5030371;28;20053;-86
2022/05/21 03:58:47;;;;;;;72.32;37.45;;;12.30;99.90;;;;;;5012693;28;20512;-84
2022/05/21 04:01:13;;;;;;;53.03;34.75;;;12.40;99.90;;;;;;5028625;28;20049;-84
2022/05/21 04:03:39;;;;;;;62.78;35.90;;;12.30;99.90;;;;;;5029032;28;20112;-83
2022/05/21 04:06:05;;;;;;;64.03;34.47;;;12.30;99.90;;;;;;5029554;28;20090;-85
2022/05/21 04:08:30;;;;;;;58.60;31.30;;;12.30;99.90;;;;;;5028888;28;20049;-84
2022/05/21 04:10:56;;;;;;;55.67;29.25;;;12.40;99.90;;;;;;5014221;28;20056;-84
2022/05/21 04:13:22;;;;;;;58.78;32.35;;;12.40;99.90;;;;;;5034755;28;20071;-83
2022/05/21 04:15:47;;;;;;;53.83;31.63;;;12.40;99.90;;;;;;5054548;28;20136;-82
2022/05/21 04:18:13;;;;;;;51.50;28.70;;;12.40;99.90;;;;;;5030165;28;20064;-85
2022/05/21 04:20:39;;;;;;;51.60;28.02;;;12.40;99.90;;;;;;5030883;28;20234;-84
2022/05/21 04:23:05;;;;;;;52.42;28.20;;;12.40;99.90;;;;;;5029929;28;20080;-84
2022/05/21 04:25:31;;;;;;;51.72;25.05;;;12.40;99.90;;;;;;5013138;28;20089;-83
2022/05/21 04:27:56;;;;;;;47.17;24.55;;;12.50;99.90;;;;;;5029832;28;20057;-83
2022/05/21 04:30:28;;;;;;;52.28;24.45;;;12.40;99.90;;;;;;5032293;28;20049;-85
2022/05/21 04:32:54;;;;;;;45.80;23.38;;;12.50;99.90;;;;;;5033472;28;20092;-84
2022/05/21 04:35:20;;;;;;;46.47;21.20;;;12.40;99.90;;;;;;5032760;28;20053;-84
2022/05/21 04:37:46;;;;;;;44.55;20.63;;;12.50;99.90;;;;;;5016597;28;20048;-84
2022/05/21 04:40:15;;;;;;;33.25;15.38;;;12.50;99.90;;;;;;5004186;28;20080;-83
2022/05/21 04:42:41;;;;;;;35.53;16.27;;;12.50;99.90;;;;;;5039033;28;20107;-84
2022/05/21 04:45:08;;;;;;;41.05;15.25;;;12.50;99.90;;;;;;5033868;28;20053;-83
2022/05/21 04:47:34;;;;;;;32.17;13.50;;;12.40;99.90;;;;;;5033408;28;20103;-83
2022/05/21 04:49:59;;;;;;;36.03;11.27;;;12.50;99.90;;;;;;5032392;28;20049;-84
2022/05/21 04:52:25;;;;;;;31.63;11.48;;;12.50;99.90;;;;;;5015754;28;20155;-84
2022/05/21 04:54:51;;;;;;;27.98;10.60;;;12.60;99.90;;;;;;5032499;28;20049;-84
2022/05/21 04:57:16;;;;;;;26.63;9.45;;;12.70;99.90;;;;;;5032000;28;20049;-85
2022/05/21 04:59:42;;;;;;;30.33;8.40;;;13.00;99.90;;;;;;5032213;28;20560;-84
2022/05/21 05:02:08;;;;;;;24.67;6.68;;;13.20;99.90;;;;;;5033502;28;20096;-84
2022/05/21 05:04:33;;;;;;;25.77;7.13;;;13.50;99.90;;;;;;5031678;28;20045;-84
2022/05/21 05:06:59;;;;;;;19.50;6.40;;;13.30;99.90;;;;;;5032137;28;20115;-83
2022/05/21 05:09:25;;;;;;;24.02;6.30;;;13.20;99.90;;;;;;5036834;28;20046;-84
2022/05/21 05:11:51;;;;;;;23.90;6.50;;;13.10;99.90;;;;;;5035262;28;20057;-85
2022/05/21 05:14:17;;;;;;;24.17;6.63;;;13.30;99.90;;;;;;5017261;28;20144;-84
2022/05/21 05:16:43;;;;;;;22.48;6.60;;;13.20;99.90;;;;;;5017353;28;20049;-84
2022/05/21 05:19:09;;;;;;;20.92;5.65;;;13.50;99.90;;;;;;5032988;28;20037;-84
2022/05/21 05:21:35;;;;;;;18.20;5.45;;;13.60;99.90;;;;;;5016483;28;20512;-84
2022/05/21 05:24:01;;;;;;;24.30;5.80;;;13.60;99.90;;;;;;5033512;28;20045;-84
2022/05/21 05:26:26;;;;;;;17.25;5.63;;;13.80;99.90;;;;;;5031733;28;20198;-83
2022/05/21 05:28:52;;;;;;;17.95;4.90;;;13.80;99.90;;;;;;5031334;28;20092;-84
2022/05/21 05:31:18;;;;;;;18.75;5.32;;;13.70;99.90;;;;;;5031459;28;20064;-82
2022/05/21 05:33:43;;;;;;;17.48;4.88;;;13.60;99.90;;;;;;5031877;28;20050;-84
2022/05/21 05:36:09;;;;;;;14.48;4.47;;;13.30;99.90;;;;;;5031653;28;20128;-84
2022/05/21 05:38:35;;;;;;;15.85;4.30;;;13.30;99.90;;;;;;5031103;28;20085;-84
2022/05/21 05:41:01;;;;;;;14.18;4.35;;;13.10;99.90;;;;;;5014011;28;20045;-85
2022/05/21 05:43:27;;;;;;;17.80;4.57;;;13.00;99.90;;;;;;5031204;28;20056;-84
2022/05/21 05:45:59;;;;;;;19.35;4.65;;;13.20;99.90;;;;;;5031734;28;20037;-85
2022/05/21 05:48:28;;;;;;;14.85;4.03;;;13.20;99.90;;;;;;5015266;28;20056;-86
2022/05/21 05:50:55;;;;;;;16.48;4.47;;;13.60;99.90;;;;;;5031068;28;20057;-85
2022/05/21 05:53:21;;;;;;;12.95;3.58;;;13.60;99.90;;;;;;5014536;28;20057;-81
2022/05/21 05:55:48;;;;;;;14.60;3.80;;;13.60;99.90;;;;;;5032068;28;20502;-85
2022/05/21 06:00:58;;;;;;;13.52;3.47;;;14.80;99.90;;;;;;5017177;28;20135;-85
2022/05/21 06:03:23;;;;;;;12.45;3.47;;;14.70;99.90;;;;;;5031881;28;20509;-85
2022/05/21 06:05:50;;;;;;;17.52;3.45;;;15.00;99.90;;;;;;5032145;28;20076;-85
2022/05/21 06:08:15;;;;;;;10.32;2.88;;;14.60;99.90;;;;;;5030568;28;20096;-86
2022/05/21 06:10:43;;;;;;;13.85;3.10;;;14.10;99.90;;;;;;5013563;28;20383;-86
2022/05/21 06:13:09;;;;;;;9.02;2.90;;;14.30;99.90;;;;;;5030816;28;20050;-85
2022/05/21 06:15:34;;;;;;;7.95;2.40;;;14.80;99.90;;;;;;5030509;28;20064;-85
2022/05/21 06:18:08;;;;;;;8.80;2.42;;;15.00;99.90;;;;;;5014479;28;20391;-85
2022/05/21 06:20:34;;;;;;;10.32;3.05;;;14.40;99.90;;;;;;5013548;28;20057;-86
2022/05/21 06:23:00;;;;;;;13.55;2.95;;;14.60;99.90;;;;;;5015202;28;20066;-85
2022/05/21 06:25:26;;;;;;;12.77;3.60;;;14.40;99.90;;;;;;5044413;28;20128;-82
2022/05/21 06:27:52;;;;;;;11.70;3.33;;;15.10;99.90;;;;;;5045244;28;20049;-86
2022/05/21 06:30:19;;;;;;;9.48;2.55;;;15.60;99.90;;;;;;5030324;28;20049;-86
2022/05/21 06:32:45;;;;;;;13.52;3.17;;;15.30;99.90;;;;;;5013788;28;20357;-85
2022/05/21 06:35:11;;;;;;;11.20;3.55;;;15.30;99.90;;;;;;5014202;28;20049;-86
2022/05/21 06:37:37;;;;;;;19.80;3.63;;;15.80;99.90;;;;;;5030109;28;20397;-87
2022/05/21 06:40:04;;;;;;;14.35;3.22;;;15.40;99.90;;;;;;5031632;28;20042;-86
2022/05/21 06:42:30;;;;;;;10.50;2.80;;;15.90;99.90;;;;;;5030034;28;20081;-87
2022/05/21 06:44:55;;;;;;;10.35;2.60;;;15.80;99.90;;;;;;5014183;28;20088;-85
2022/05/21 06:47:21;;;;;;;13.90;3.28;;;16.20;99.90;;;;;;5031427;28;20037;-86
2022/05/21 06:49:47;;;;;;;7.97;2.95;;;16.20;99.90;;;;;;5031028;28;20052;-85
2022/05/21 06:52:13;;;;;;;12.25;2.92;;;16.60;99.90;;;;;;5029867;28;20106;-88
2022/05/21 06:54:38;;;;;;;9.95;2.70;;;17.10;99.90;;;;;;5029755;28;20045;-86
2022/05/21 06:57:08;;;;;;;8.23;2.78;;;17.60;99.90;;;;;;5013656;28;20132;-86
2022/05/21 06:59:34;;;;;;;9.77;2.78;;;18.00;99.90;;;;;;5013694;28;20064;-86
2022/05/21 07:02:00;;;;;;;9.40;2.80;;;18.10;99.90;;;;;;5029637;28;20053;-86
2022/05/21 07:09:57;;;;;;;10.57;2.92;;;17.50;99.90;;;;;;5015914;28;20507;-86
2022/05/21 07:12:23;;;;;;;10.48;2.97;;;16.70;99.90;;;;;;5030043;28;20045;-86
2022/05/21 07:14:48;;;;;;;9.32;3.30;;;16.50;99.90;;;;;;5030528;28;20103;-85
2022/05/21 07:17:16;;;;;;;9.98;3.08;;;16.30;99.90;;;;;;5031175;28;20046;-85
2022/05/21 07:19:41;;;;;;;14.45;3.50;;;16.30;99.90;;;;;;5030277;28;20064;-83
2022/05/21 07:22:08;;;;;;;11.75;3.53;;;16.50;99.90;;;;;;5045979;28;20048;-82
2022/05/21 07:24:38;;;;;;;10.75;2.70;;;17.30;99.90;;;;;;5048253;28;20059;-83
2022/05/21 07:27:03;;;;;;;9.80;3.05;;;17.50;99.90;;;;;;5031676;28;20049;-83
2022/05/21 07:29:29;;;;;;;10.70;2.70;;;17.70;99.90;;;;;;5047729;28;20076;-82
2022/05/21 07:31:55;;;;;;;7.40;2.80;;;17.30;99.90;;;;;;5047898;28;20045;-83
2022/05/21 07:34:22;;;;;;;12.00;3.40;;;17.20;99.90;;;;;;5048390;28;20067;-87
2022/05/21 07:36:48;;;;;;;10.10;2.40;;;16.90;99.90;;;;;;5031577;28;20053;-83
2022/05/21 07:39:14;;;;;;;9.57;2.40;;;17.10;99.90;;;;;;5032435;28;20060;-82
2022/05/21 07:41:39;;;;;;;9.20;2.60;;;17.80;99.90;;;;;;5048487;28;20048;-82
2022/05/21 07:44:05;;;;;;;10.60;2.42;;;18.10;99.90;;;;;;5048264;28;20124;-82
2022/05/21 07:46:31;;;;;;;11.52;3.10;;;18.10;99.90;;;;;;5048749;28;20052;-82
2022/05/21 07:48:56;;;;;;;8.57;2.35;;;17.90;99.90;;;;;;5045322;28;20492;-82
2022/05/21 07:51:22;;;;;;;9.73;2.28;;;17.60;99.90;;;;;;5046051;28;20061;-82
2022/05/21 07:53:48;;;;;;;11.90;2.60;;;17.70;99.90;;;;;;5031130;28;20548;-83
2022/05/21 07:56:13;;;;;;;12.13;3.00;;;17.90;99.90;;;;;;5042443;28;20067;-83
2022/05/21 07:58:39;;;;;;;9.85;2.83;;;18.40;99.90;;;;;;5029968;28;20045;-85
2022/05/21 08:01:05;;;;;;;9.63;2.30;;;18.70;99.90;;;;;;5047316;28;20067;-82
2022/05/21 08:03:31;;;;;;;7.68;1.95;;;19.10;99.90;;;;;;5048407;28;20509;-83
2022/05/21 08:05:57;;;;;;;9.50;2.70;;;19.90;99.90;;;;;;5052944;28;20465;-86
2022/05/21 08:08:23;;;;;;;13.10;2.80;;;19.80;99.90;;;;;;5036785;28;20132;-88
2022/05/21 08:10:48;;;;;;;8.60;2.50;;;19.20;99.90;;;;;;5052343;28;20078;-85
2022/05/21 08:13:15;;;;;;;9.15;2.53;;;18.20;99.90;;;;;;5051837;28;20566;-85
2022/05/21 08:15:40;;;;;;;12.07;2.53;;;18.40;99.90;;;;;;5033539;28;20104;-86
2022/05/21 08:18:06;;;;;;;13.75;2.67;;;18.80;99.90;;;;;;5034564;28;20444;-85
2022/05/21 08:20:33;;;;;;;12.02;2.53;;;18.70;99.90;;;;;;5032018;28;20551;-85
2022/05/21 08:28:37;;;;;;;8.80;2.70;;;19.20;99.90;;;;;;4997034;28;20046;-84
2022/05/21 08:31:03;;;;;;;14.43;3.38;;;18.80;99.90;;;;;;5050100;28;20396;-84
2022/05/21 08:33:29;;;;;;;9.10;2.47;;;17.80;99.90;;;;;;5032053;28;20045;-89
2022/05/21 08:35:54;;;;;;;11.38;2.58;;;17.70;99.90;;;;;;5016504;28;20144;-87
2022/05/21 08:38:20;;;;;;;11.70;2.80;;;18.70;99.90;;;;;;5018925;28;20061;-89
2022/05/21 08:41:24;;;;;;;15.20;3.13;;;18.90;99.90;;;;;;5037527;28;20444;-89
2022/05/21 08:43:55;;;;;;;10.52;2.78;;;19.10;99.90;;;;;;5033897;28;20061;-87
2022/05/21 08:46:41;;;;;;;9.10;2.40;;;19.20;99.90;;;;;;5017770;28;20045;-90
2022/05/21 08:49:08;;;;;;;12.93;2.85;;;18.90;99.90;;;;;;5040957;28;20112;-87
2022/05/21 08:51:43;;;;;;;11.43;2.80;;;18.10;99.90;;;;;;5034654;28;20038;-88
2022/05/21 08:54:09;;;;;;;9.05;2.83;;;18.50;99.90;;;;;;5035756;28;20045;-88
2022/05/21 08:56:34;;;;;;;9.85;2.92;;;19.00;99.90;;;;;;5034025;28;20144;-90
2022/05/21 08:59:05;;;;;;;9.27;2.63;;;18.60;99.90;;;;;;5031787;28;20473;-90
2022/05/21 09:01:33;;;;;;;8.10;2.05;;;18.40;99.90;;;;;;5000145;28;20210;-87
2022/05/21 09:03:59;;;;;;;9.32;2.50;;;18.70;99.90;;;;;;5015794;28;20515;-88
2022/05/21 09:06:30;;;;;;;9.93;2.63;;;18.30;99.90;;;;;;5049772;28;20528;-88
2022/05/21 09:09:21;;;;;;;7.68;2.00;;;19.30;99.90;;;;;;5016607;28;20061;-85
2022/05/21 09:11:49;;;;;;;12.02;2.50;;;19.70;99.90;;;;;;5050817;28;20045;-83
2022/05/21 09:14:21;;;;;;;8.32;2.35;;;20.60;99.90;;;;;;5033266;28;20565;-84
2022/05/21 09:16:55;;;;;;;9.85;2.22;;;20.50;99.90;;;;;;5050883;28;20053;-84
2022/05/21 09:19:34;;;;;;;11.20;2.50;;;21.40;99.90;;;;;;5050314;28;20044;-88
2022/05/21 09:22:02;;;;;;;7.60;2.38;;;20.90;99.90;;;;;;5050513;28;20071;-85
2022/05/21 09:24:35;;;;;;;7.63;2.05;;;20.20;99.90;;;;;;5048599;28;20049;-85
2022/05/21 09:27:01;;;;;;;7.93;2.35;;;20.10;99.90;;;;;;5050197;28;20134;-85
2022/05/21 09:29:34;;;;;;;8.85;2.83;;;20.20;99.90;;;;;;5033636;28;20049;-85
2022/05/21 09:32:14;;;;;;;8.67;2.33;;;20.50;99.90;;;;;;5032867;28;20048;-85
2022/05/21 09:34:40;;;;;;;9.48;2.22;;;20.30;99.90;;;;;;5018922;28;20121;-84
2022/05/21 09:37:16;;;;;;;11.75;2.50;;;19.40;99.90;;;;;;5028739;28;20129;-84
2022/05/21 09:39:41;;;;;;;12.32;2.78;;;18.40;99.90;;;;;;5018989;28;20052;-84
2022/05/21 09:45:22;;;;;;;12.35;2.60;;;18.10;99.90;;;;;;5036200;28;20053;-87
2022/05/21 09:47:51;;;;;;;10.50;2.20;;;18.70;99.90;;;;;;5051755;28;20053;-86
2022/05/21 09:50:21;;;;;;;6.85;2.28;;;19.50;99.90;;;;;;5035735;28;20460;-87
2022/05/21 09:52:49;;;;;;;6.28;1.85;;;19.50;99.90;;;;;;5037041;28;20554;-93
2022/05/21 09:55:27;;;;;;;10.73;2.35;;;19.10;99.90;;;;;;5037435;28;20064;-90
2022/05/21 09:57:54;;;;;;;5.28;1.80;;;19.00;99.90;;;;;;5035035;28;20493;-87
2022/05/21 10:00:33;;;;;;;11.75;2.38;;;18.20;99.90;;;;;;5051877;28;20053;-88
2022/05/21 10:03:01;;;;;;;7.60;1.88;;;17.80;99.90;;;;;;5051277;28;20472;-89
2022/05/21 10:05:43;;;;;;;7.68;2.30;;;17.90;99.90;;;;;;5035776;28;20053;-88
2022/05/21 10:11:35;;;;;;;8.23;2.28;;;18.00;99.90;;;;;;5037884;28;20551;-87
2022/05/21 10:14:02;;;;;;;9.90;2.80;;;17.80;99.90;;;;;;5035252;28;20555;-88
2022/05/21 10:16:38;;;;;;;7.57;1.70;;;18.70;99.90;;;;;;5018703;28;20088;-89
2022/05/21 10:19:18;;;;;;;10.18;2.00;;;18.60;99.90;;;;;;5035408;28;20219;-89
2022/05/21 10:22:05;;;;;;;9.43;1.60;;;19.40;99.90;;;;;;5035675;28;20111;-88
2022/05/21 10:24:49;;;;;;;7.88;1.92;;;20.10;99.90;;;;;;5051488;28;20563;-90
2022/05/21 10:27:39;;;;;;;9.57;2.05;;;19.60;99.90;;;;;;5039248;28;20052;-89
2022/05/21 10:30:23;;;;;;;8.07;2.95;;;19.00;99.90;;;;;;5034151;28;20057;-90
2022/05/21 10:33:07;;;;;;;8.02;2.20;;;18.60;99.90;;;;;;5051370;28;20055;-90
2022/05/21 10:36:03;;;;;;;6.38;2.00;;;18.60;99.90;;;;;;5051091;28;20033;-91
2022/05/21 10:38:54;;;;;;;9.65;2.60;;;17.90;99.90;;;;;;5035598;28;20108;-89
2022/05/21 10:41:32;;;;;;;7.40;2.00;;;18.20;99.90;;;;;;5035703;28;20053;-88
2022/05/21 10:44:24;;;;;;;7.40;1.98;;;18.20;99.90;;;;;;5033866;28;20511;-89
2022/05/21 10:46:51;;;;;;;5.28;1.70;;;18.70;99.90;;;;;;5046616;28;20061;-89
2022/05/21 10:49:26;;;;;;;6.75;1.80;;;19.20;99.90;;;;;;5039671;28;20049;-89
2022/05/21 10:52:19;;;;;;;7.45;1.90;;;18.70;99.90;;;;;;5032777;28;20072;-88
2022/05/21 10:55:06;;;;;;;6.30;1.92;;;18.40;99.90;;;;;;5015111;28;20131;-91
2022/05/21 10:57:32;;;;;;;6.82;1.65;;;18.30;99.90;;;;;;5034000;28;20057;-88
2022/05/21 11:00:26;;;;;;;8.60;2.45;;;18.20;99.90;;;;;;5039192;28;20410;-84
2022/05/21 11:03:17;;;;;;;6.90;2.38;;;17.70;99.90;;;;;;5053287;28;20049;-92
2022/05/21 11:06:12;;;;;;;10.30;2.20;;;17.80;99.90;;;;;;5016696;28;20060;-91
2022/05/21 11:09:07;;;;;;;8.77;2.13;;;18.60;99.90;;;;;;5015458;28;20049;-90
2022/05/21 11:11:44;;;;;;;;;;;18.70;99.90;;;;;;5030832;28;20107;-90
2022/05/21 11:14:18;;;;;;;7.68;1.90;;;18.60;99.90;;;;;;5030198;28;19928;-93
2022/05/21 11:16:53;;;;;;;6.72;2.38;;;18.40;99.90;;;;;;5014234;28;20068;-89
2022/05/21 11:19:23;;;;;;;7.95;2.40;;;18.70;99.90;;;;;;5029932;28;20048;-89
2022/05/21 11:22:02;;;;;;;6.95;1.60;;;18.80;99.90;;;;;;5013633;28;20057;-91
2022/05/21 11:24:39;;;;;;;7.05;2.00;;;19.10;99.90;;;;;;5014017;28;20557;-92
2022/05/21 11:27:06;;;;;;;6.80;2.30;;;19.30;99.90;;;;;;5013897;28;20060;-91
2022/05/21 11:29:48;;;;;;;7.97;2.20;;;19.50;99.90;;;;;;5024499;28;20052;-88
2022/05/21 11:37:55;;;;;;;10.02;2.05;;;19.50;99.90;;;;;;5016638;28;20421;-94
2022/05/21 11:40:51;;;;;;;7.90;1.80;;;19.60;99.90;;;;;;5024496;28;20388;-93
2022/05/21 11:43:18;;;;;;;6.40;1.75;;;20.10;99.90;;;;;;5034348;28;20127;-91
2022/05/21 11:46:01;;;;;;;7.32;2.22;;;20.50;99.90;;;;;;5034976;28;20052;-92
2022/05/21 11:48:28;;;;;;;8.00;1.63;;;20.50;99.90;;;;;;5017601;28;20045;-91
2022/05/21 11:51:17;;;;;;;7.55;2.65;;;20.40;99.90;;;;;;5018269;28;20052;-93
2022/05/21 11:53:44;;;;;;;8.38;1.88;;;19.70;99.90;;;;;;5026765;28;20087;-91
2022/05/21 11:56:13;;;;;;;7.15;1.90;;;19.40;99.90;;;;;;5054154;28;20505;-92
2022/05/21 11:58:58;;;;;;;5.38;1.92;;;18.90;99.90;;;;;;5034317;28;20056;-92
2022/05/21 12:01:38;;;;;;;6.13;2.00;;;19.20;99.90;;;;;;5046321;28;20477;-91
2022/05/21 12:04:05;;;;;;;9.00;2.17;;;19.30;99.90;;;;;;5031352;28;20050;-94
2022/05/21 12:06:40;;;;;;;10.10;2.63;;;19.30;99.90;;;;;;5015778;28;20075;-94
2022/05/21 12:09:31;;;;;;;7.15;1.88;;;19.90;99.90;;;;;;5018902;28;20093;-93
2022/05/21 12:12:17;;;;;;;5.00;1.60;;;20.10;99.90;;;;;;5007781;28;20076;-93
2022/05/21 12:14:53;;;;;;;8.30;2.22;;;20.20;99.90;;;;;;5042245;28;20100;-91
2022/05/21 12:17:57;;;;;;;9.40;2.20;;;20.30;99.90;;;;;;5007756;28;20052;-92
2022/05/21 12:20:45;;;;;;;6.93;2.00;;;20.10;99.90;;;;;;5037798;28;20148;-94
2022/05/21 12:23:35;;;;;;;7.95;1.83;;;19.90;99.90;;;;;;5031070;28;20050;-93
2022/05/21 12:26:04;;;;;;;7.90;1.98;;;19.80;99.90;;;;;;5031751;28;20061;-93
2022/05/21 12:28:55;;;;;;;9.50;2.08;;;18.90;99.90;;;;;;5016111;28;20449;-94
2022/05/21 12:31:42;;;;;;;6.70;2.17;;;18.90;99.90;;;;;;5032034;28;20081;-93
2022/05/21 12:34:14;;;;;;;5.80;1.80;;;18.80;99.90;;;;;;5031769;28;20125;-95
2022/05/21 12:36:45;;;;;;;8.68;2.08;;;19.00;99.90;;;;;;5032076;28;20045;-93
2022/05/21 12:39:13;;;;;;;9.93;2.10;;;18.90;99.90;;;;;;5031077;28;20056;-93
2022/05/21 12:41:40;;;;;;;8.43;2.28;;;18.80;99.90;;;;;;5015287;28;20069;-93
2022/05/21 12:44:06;;;;;;;8.05;2.35;;;18.80;99.90;;;;;;5024503;28;20057;-88
2022/05/21 12:46:34;;;;;;;10.00;2.83;;;18.60;99.90;;;;;;5030858;28;20132;-94
2022/05/21 12:49:04;;;;;;;8.85;2.13;;;18.30;99.90;;;;;;5030502;28;20065;-94
2022/05/21 12:51:41;;;;;;;7.15;2.08;;;18.20;99.90;;;;;;5017626;28;20056;-94
2022/05/21 12:54:20;;;;;;;6.78;1.88;;;18.00;99.90;;;;;;5035022;28;20064;-85
2022/05/21 12:56:46;;;;;;;6.55;1.85;;;17.90;99.90;;;;;;5036194;28;20088;-95
2022/05/21 12:59:19;;;;;;;6.22;1.77;;;17.80;99.90;;;;;;5018426;28;20053;-96
2022/05/21 13:02:20;;;;;;;6.32;1.85;;;17.60;99.90;;;;;;5019128;28;20065;-92
2022/05/21 13:04:55;;;;;;;9.18;1.90;;;17.60;99.90;;;;;;4984556;28;20065;-95
2022/05/21 13:07:26;;;;;;;7.97;1.90;;;17.70;99.90;;;;;;5043432;28;20073;-94
2022/05/21 13:10:05;;;;;;;6.72;1.75;;;18.00;99.90;;;;;;5017821;28;20061;-92
2022/05/21 13:12:37;;;;;;;7.35;2.15;;;18.10;99.90;;;;;;5017153;28;20045;-94
2022/05/21 13:15:03;;;;;;;8.85;2.05;;;18.10;99.90;;;;;;5016910;28;20118;-93
2022/05/21 13:17:58;;;;;;;9.55;1.90;;;18.00;99.90;;;;;;5016741;28;20819;-95
2022/05/21 13:21:07;;;;;;;8.23;1.98;;;18.20;99.90;;;;;;5019431;28;20050;-96
2022/05/21 13:24:10;;;;;;;7.15;1.98;;;18.20;99.90;;;;;;5010071;28;20152;-95
2022/05/21 13:26:37;;;;;;;5.35;1.85;;;18.00;99.90;;;;;;5017785;28;20060;-93